sensor_id;sensor_type;location;lat;lon;timestamp;P1;durP1;ratioP1;P2;durP2;ratioP2
19998;SDS011;10160;50.926;4.374;2023-04-25T00:01:47;24.97;;;5.10;;
19998;SDS011;10160;50.926;4.374;2023-04-25T00:04:13;20.90;;;5.27;;
19998;SDS011;10160;50.926;4.374;2023-04-25T00:06:39;21.60;;;5.07;;
19998;SDS011;10160;50.926;4.374;2023-04-25T00:09:05;17.40;;;5.10;;
19998;SDS011;10160;50.926;4.374;2023-04-25T00:11:35;27.00;;;4.90;;
19998;SDS011;10160;50.926;4.374;2023-04-25T00:14:02;19.27;;;5.10;;
19998;SDS011;10160;50.926;4.374;2023-04-25T00:16:28;21.23;;;5.30;;
19998;SDS011;10160;50.926;4.374;2023-04-25T00:18:55;22.73;;;6.27;;
19998;SDS011;10160;50.926;4.374;2023-04-25T00:21:21;18.60;;;4.83;;
19998;SDS011;10160;50.926;4.374;2023-04-25T00:23:49;20.53;;;5.50;;
19998;SDS011;10160;50.926;4.374;2023-04-25T00:26:15;18.53;;;5.37;;
19998;SDS011;10160;50.926;4.374;2023-04-25T00:28:40;18.80;;;5.30;;
19998;SDS011;10160;50.926;4.374;2023-04-25T00:31:06;28.40;;;5.73;;
19998;SDS011;10160;50.926;4.374;2023-04-25T00:33:32;20.90;;;5.30;;
19998;SDS011;10160;50.926;4.374;2023-04-25T00:35:57;27.17;;;5.77;;
19998;SDS011;10160;50.926;4.374;2023-04-25T00:38:23;15.27;;;4.93;;
19998;SDS011;10160;50.926;4.374;2023-04-25T00:40:49;19.60;;;4.97;;
19998;SDS011;10160;50.926;4.374;2023-04-25T00:43:14;20.27;;;5.50;;
19998;SDS011;10160;50.926;4.374;2023-04-25T00:45:40;17.33;;;5.00;;
19998;SDS011;10160;50.926;4.374;2023-04-25T00:48:08;17.00;;;5.47;;
19998;SDS011;10160;50.926;4.374;2023-04-25T00:50:34;18.97;;;4.90;;
19998;SDS011;10160;50.926;4.374;2023-04-25T00:53:01;20.83;;;5.37;;
19998;SDS011;10160;50.926;4.374;2023-04-25T00:55:28;20.90;;;5.47;;
19998;SDS011;10160;50.926;4.374;2023-04-25T00:57:56;24.70;;;5.87;;
19998;SDS011;10160;50.926;4.374;2023-04-25T01:00:22;17.60;;;5.20;;
19998;SDS011;10160;50.926;4.374;2023-04-25T01:02:48;17.93;;;5.47;;
19998;SDS011;10160;50.926;4.374;2023-04-25T01:05:14;22.27;;;6.27;;
19998;SDS011;10160;50.926;4.374;2023-04-25T01:07:40;15.97;;;5.47;;
19998;SDS011;10160;50.926;4.374;2023-04-25T01:10:06;26.93;;;5.70;;
19998;SDS011;10160;50.926;4.374;2023-04-25T01:12:32;21.43;;;6.03;;
19998;SDS011;10160;50.926;4.374;2023-04-25T01:14:58;24.67;;;6.57;;
19998;SDS011;10160;50.926;4.374;2023-04-25T01:17:24;22.63;;;5.87;;
19998;SDS011;10160;50.926;4.374;2023-04-25T01:19:50;20.53;;;5.80;;
19998;SDS011;10160;50.926;4.374;2023-04-25T01:22:16;19.73;;;5.57;;
19998;SDS011;10160;50.926;4.374;2023-04-25T01:24:42;20.00;;;5.50;;
19998;SDS011;10160;50.926;4.374;2023-04-25T01:27:08;25.97;;;5.90;;
19998;SDS011;10160;50.926;4.374;2023-04-25T01:29:35;28.27;;;5.50;;
19998;SDS011;10160;50.926;4.374;2023-04-25T01:32:01;22.93;;;5.90;;
19998;SDS011;10160;50.926;4.374;2023-04-25T01:34:28;21.67;;;5.73;;
19998;SDS011;10160;50.926;4.374;2023-04-25T01:36:53;24.27;;;6.37;;
19998;SDS011;10160;50.926;4.374;2023-04-25T01:39:19;18.63;;;5.80;;
19998;SDS011;10160;50.926;4.374;2023-04-25T01:41:45;20.53;;;5.97;;
19998;SDS011;10160;50.926;4.374;2023-04-25T01:44:12;25.17;;;6.20;;
19998;SDS011;10160;50.926;4.374;2023-04-25T01:46:38;26.13;;;5.80;;
19998;SDS011;10160;50.926;4.374;2023-04-25T01:49:04;27.70;;;6.10;;
19998;SDS011;10160;50.926;4.374;2023-04-25T01:51:30;20.03;;;5.30;;
19998;SDS011;10160;50.926;4.374;2023-04-25T01:53:56;20.73;;;5.50;;
19998;SDS011;10160;50.926;4.374;2023-04-25T01:56:22;22.67;;;6.17;;
19998;SDS011;10160;50.926;4.374;2023-04-25T01:58:48;18.67;;;5.67;;
19998;SDS011;10160;50.926;4.374;2023-04-25T02:01:14;28.67;;;6.40;;
19998;SDS011;10160;50.926;4.374;2023-04-25T02:03:40;21.93;;;6.03;;
19998;SDS011;10160;50.926;4.374;2023-04-25T02:06:05;18.83;;;5.73;;
19998;SDS011;10160;50.926;4.374;2023-04-25T02:08:31;20.63;;;5.77;;
19998;SDS011;10160;50.926;4.374;2023-04-25T02:10:57;24.77;;;6.20;;
19998;SDS011;10160;50.926;4.374;2023-04-25T02:13:23;21.93;;;6.70;;
19998;SDS011;10160;50.926;4.374;2023-04-25T02:15:48;20.70;;;5.60;;
19998;SDS011;10160;50.926;4.374;2023-04-25T02:18:14;23.70;;;6.23;;
19998;SDS011;10160;50.926;4.374;2023-04-25T02:20:43;22.20;;;5.87;;
19998;SDS011;10160;50.926;4.374;2023-04-25T02:23:09;23.10;;;6.23;;
19998;SDS011;10160;50.926;4.374;2023-04-25T02:25:34;22.97;;;6.00;;
19998;SDS011;10160;50.926;4.374;2023-04-25T02:28:00;24.67;;;5.90;;
19998;SDS011;10160;50.926;4.374;2023-04-25T02:30:26;25.50;;;5.70;;
19998;SDS011;10160;50.926;4.374;2023-04-25T02:32:52;20.27;;;5.70;;
19998;SDS011;10160;50.926;4.374;2023-04-25T02:35:17;27.80;;;6.40;;
19998;SDS011;10160;50.926;4.374;2023-04-25T02:37:43;19.93;;;6.03;;
19998;SDS011;10160;50.926;4.374;2023-04-25T02:40:09;23.40;;;6.20;;
19998;SDS011;10160;50.926;4.374;2023-04-25T02:42:35;28.30;;;6.37;;
19998;SDS011;10160;50.926;4.374;2023-04-25T02:45:01;22.03;;;6.90;;
19998;SDS011;10160;50.926;4.374;2023-04-25T02:47:28;19.03;;;5.17;;
19998;SDS011;10160;50.926;4.374;2023-04-25T02:49:54;20.40;;;5.00;;
19998;SDS011;10160;50.926;4.374;2023-04-25T02:52:19;21.77;;;5.47;;
19998;SDS011;10160;50.926;4.374;2023-04-25T02:54:46;23.90;;;6.33;;
19998;SDS011;10160;50.926;4.374;2023-04-25T02:57:11;20.77;;;5.70;;
19998;SDS011;10160;50.926;4.374;2023-04-25T02:59:37;25.87;;;5.70;;
19998;SDS011;10160;50.926;4.374;2023-04-25T03:02:03;25.70;;;5.37;;
19998;SDS011;10160;50.926;4.374;2023-04-25T03:04:29;15.20;;;5.13;;
19998;SDS011;10160;50.926;4.374;2023-04-25T03:06:55;21.57;;;5.43;;
19998;SDS011;10160;50.926;4.374;2023-04-25T03:09:20;23.53;;;5.43;;
19998;SDS011;10160;50.926;4.374;2023-04-25T03:11:46;21.30;;;5.50;;
19998;SDS011;10160;50.926;4.374;2023-04-25T03:14:12;23.10;;;6.00;;
19998;SDS011;10160;50.926;4.374;2023-04-25T03:16:38;23.80;;;5.97;;
19998;SDS011;10160;50.926;4.374;2023-04-25T03:19:04;17.13;;;5.40;;
19998;SDS011;10160;50.926;4.374;2023-04-25T03:21:30;21.70;;;5.10;;
19998;SDS011;10160;50.926;4.374;2023-04-25T03:23:57;23.37;;;6.17;;
19998;SDS011;10160;50.926;4.374;2023-04-25T03:26:23;23.73;;;5.07;;
19998;SDS011;10160;50.926;4.374;2023-04-25T03:28:49;29.27;;;6.17;;
19998;SDS011;10160;50.926;4.374;2023-04-25T03:31:15;26.17;;;5.63;;
19998;SDS011;10160;50.926;4.374;2023-04-25T03:33:40;24.30;;;5.60;;
19998;SDS011;10160;50.926;4.374;2023-04-25T03:36:06;30.73;;;6.43;;
19998;SDS011;10160;50.926;4.374;2023-04-25T03:38:32;19.63;;;5.30;;
19998;SDS011;10160;50.926;4.374;2023-04-25T03:40:58;20.57;;;6.63;;
19998;SDS011;10160;50.926;4.374;2023-04-25T03:43:23;26.43;;;5.70;;
19998;SDS011;10160;50.926;4.374;2023-04-25T03:45:49;22.03;;;5.23;;
19998;SDS011;10160;50.926;4.374;2023-04-25T03:48:15;26.43;;;5.20;;
19998;SDS011;10160;50.926;4.374;2023-04-25T03:50:42;25.83;;;4.80;;
19998;SDS011;10160;50.926;4.374;2023-04-25T03:53:08;26.20;;;5.20;;
19998;SDS011;10160;50.926;4.374;2023-04-25T03:55:36;20.97;;;5.07;;
19998;SDS011;10160;50.926;4.374;2023-04-25T03:58:02;17.27;;;4.63;;
19998;SDS011;10160;50.926;4.374;2023-04-25T04:00:28;18.33;;;5.40;;
19998;SDS011;10160;50.926;4.374;2023-04-25T04:02:53;24.73;;;4.90;;
19998;SDS011;10160;50.926;4.374;2023-04-25T04:05:19;21.00;;;5.23;;
19998;SDS011;10160;50.926;4.374;2023-04-25T04:07:45;21.73;;;5.60;;
19998;SDS011;10160;50.926;4.374;2023-04-25T04:10:11;26.97;;;5.43;;
19998;SDS011;10160;50.926;4.374;2023-04-25T04:12:37;17.67;;;4.60;;
19998;SDS011;10160;50.926;4.374;2023-04-25T04:15:04;24.90;;;4.70;;
19998;SDS011;10160;50.926;4.374;2023-04-25T04:17:31;25.50;;;5.23;;
19998;SDS011;10160;50.926;4.374;2023-04-25T04:19:56;23.13;;;5.43;;
19998;SDS011;10160;50.926;4.374;2023-04-25T04:22:22;21.03;;;5.03;;
19998;SDS011;10160;50.926;4.374;2023-04-25T04:24:48;21.93;;;5.07;;
19998;SDS011;10160;50.926;4.374;2023-04-25T04:27:15;25.40;;;6.03;;
19998;SDS011;10160;50.926;4.374;2023-04-25T04:29:45;23.27;;;5.53;;
19998;SDS011;10160;50.926;4.374;2023-04-25T04:32:11;25.33;;;4.83;;
19998;SDS011;10160;50.926;4.374;2023-04-25T04:34:37;22.73;;;5.73;;
19998;SDS011;10160;50.926;4.374;2023-04-25T04:37:04;21.13;;;5.27;;
19998;SDS011;10160;50.926;4.374;2023-04-25T04:39:30;25.70;;;5.97;;
19998;SDS011;10160;50.926;4.374;2023-04-25T04:41:56;21.27;;;5.30;;
19998;SDS011;10160;50.926;4.374;2023-04-25T04:44:22;23.87;;;6.57;;
19998;SDS011;10160;50.926;4.374;2023-04-25T04:46:47;20.80;;;5.13;;
19998;SDS011;10160;50.926;4.374;2023-04-25T04:49:13;22.20;;;5.37;;
19998;SDS011;10160;50.926;4.374;2023-04-25T04:51:39;32.30;;;6.37;;
19998;SDS011;10160;50.926;4.374;2023-04-25T04:54:11;14.83;;;4.67;;
19998;SDS011;10160;50.926;4.374;2023-04-25T04:56:37;17.43;;;5.33;;
19998;SDS011;10160;50.926;4.374;2023-04-25T04:59:03;15.83;;;4.60;;
19998;SDS011;10160;50.926;4.374;2023-04-25T05:01:29;15.03;;;5.30;;
19998;SDS011;10160;50.926;4.374;2023-04-25T05:03:55;17.97;;;4.77;;
19998;SDS011;10160;50.926;4.374;2023-04-25T05:06:25;25.23;;;6.30;;
19998;SDS011;10160;50.926;4.374;2023-04-25T05:08:52;17.40;;;5.57;;
19998;SDS011;10160;50.926;4.374;2023-04-25T05:11:18;18.83;;;5.63;;
19998;SDS011;10160;50.926;4.374;2023-04-25T05:13:48;16.63;;;5.03;;
19998;SDS011;10160;50.926;4.374;2023-04-25T05:16:14;20.00;;;6.30;;
19998;SDS011;10160;50.926;4.374;2023-04-25T05:18:40;19.80;;;6.07;;
19998;SDS011;10160;50.926;4.374;2023-04-25T05:21:07;25.93;;;6.40;;
19998;SDS011;10160;50.926;4.374;2023-04-25T05:23:33;20.47;;;5.03;;
19998;SDS011;10160;50.926;4.374;2023-04-25T05:25:59;22.23;;;6.23;;
19998;SDS011;10160;50.926;4.374;2023-04-25T05:28:25;16.30;;;5.23;;
19998;SDS011;10160;50.926;4.374;2023-04-25T05:30:51;23.73;;;6.27;;
19998;SDS011;10160;50.926;4.374;2023-04-25T05:33:17;16.87;;;5.17;;
19998;SDS011;10160;50.926;4.374;2023-04-25T05:35:43;27.10;;;6.77;;
19998;SDS011;10160;50.926;4.374;2023-04-25T05:38:09;19.70;;;5.87;;
19998;SDS011;10160;50.926;4.374;2023-04-25T05:40:35;22.13;;;6.13;;
19998;SDS011;10160;50.926;4.374;2023-04-25T05:43:00;22.50;;;5.67;;
19998;SDS011;10160;50.926;4.374;2023-04-25T05:45:26;18.90;;;6.43;;
19998;SDS011;10160;50.926;4.374;2023-04-25T05:47:52;24.67;;;7.17;;
19998;SDS011;10160;50.926;4.374;2023-04-25T05:50:17;21.83;;;6.30;;
19998;SDS011;10160;50.926;4.374;2023-04-25T05:52:43;24.20;;;6.03;;
19998;SDS011;10160;50.926;4.374;2023-04-25T05:55:09;25.07;;;6.37;;
19998;SDS011;10160;50.926;4.374;2023-04-25T05:57:35;21.77;;;6.77;;
19998;SDS011;10160;50.926;4.374;2023-04-25T06:00:00;17.47;;;5.90;;
19998;SDS011;10160;50.926;4.374;2023-04-25T06:02:26;21.43;;;6.60;;
19998;SDS011;10160;50.926;4.374;2023-04-25T06:04:51;18.53;;;6.30;;
19998;SDS011;10160;50.926;4.374;2023-04-25T06:07:18;15.43;;;5.40;;
19998;SDS011;10160;50.926;4.374;2023-04-25T06:09:44;14.50;;;5.70;;
19998;SDS011;10160;50.926;4.374;2023-04-25T06:12:10;16.40;;;5.73;;
19998;SDS011;10160;50.926;4.374;2023-04-25T06:14:36;18.23;;;5.10;;
19998;SDS011;10160;50.926;4.374;2023-04-25T06:17:02;20.13;;;4.93;;
19998;SDS011;10160;50.926;4.374;2023-04-25T06:19:32;14.20;;;5.30;;
19998;SDS011;10160;50.926;4.374;2023-04-25T06:21:58;15.87;;;5.30;;
19998;SDS011;10160;50.926;4.374;2023-04-25T06:24:23;14.33;;;5.30;;
19998;SDS011;10160;50.926;4.374;2023-04-25T06:26:49;16.87;;;5.77;;
19998;SDS011;10160;50.926;4.374;2023-04-25T06:29:15;22.80;;;5.10;;
19998;SDS011;10160;50.926;4.374;2023-04-25T06:31:40;21.93;;;5.87;;
19998;SDS011;10160;50.926;4.374;2023-04-25T06:34:06;18.97;;;5.40;;
19998;SDS011;10160;50.926;4.374;2023-04-25T06:36:32;16.30;;;4.77;;
19998;SDS011;10160;50.926;4.374;2023-04-25T06:38:58;17.67;;;4.77;;
19998;SDS011;10160;50.926;4.374;2023-04-25T06:41:23;22.80;;;6.33;;
19998;SDS011;10160;50.926;4.374;2023-04-25T06:43:49;20.50;;;5.80;;
19998;SDS011;10160;50.926;4.374;2023-04-25T06:46:15;17.43;;;5.20;;
19998;SDS011;10160;50.926;4.374;2023-04-25T06:48:40;19.70;;;5.00;;
19998;SDS011;10160;50.926;4.374;2023-04-25T06:51:06;24.20;;;5.90;;
19998;SDS011;10160;50.926;4.374;2023-04-25T06:53:32;17.47;;;4.80;;
19998;SDS011;10160;50.926;4.374;2023-04-25T06:55:57;18.00;;;4.67;;
19998;SDS011;10160;50.926;4.374;2023-04-25T06:58:23;19.90;;;5.10;;
19998;SDS011;10160;50.926;4.374;2023-04-25T07:00:49;16.73;;;5.00;;
19998;SDS011;10160;50.926;4.374;2023-04-25T07:03:14;17.63;;;4.43;;
19998;SDS011;10160;50.926;4.374;2023-04-25T07:05:40;16.47;;;4.97;;
19998;SDS011;10160;50.926;4.374;2023-04-25T07:08:06;23.27;;;5.07;;
19998;SDS011;10160;50.926;4.374;2023-04-25T07:10:32;20.43;;;5.53;;
19998;SDS011;10160;50.926;4.374;2023-04-25T07:12:57;15.23;;;4.73;;
19998;SDS011;10160;50.926;4.374;2023-04-25T07:15:23;21.17;;;4.50;;
19998;SDS011;10160;50.926;4.374;2023-04-25T07:17:49;15.63;;;4.10;;
19998;SDS011;10160;50.926;4.374;2023-04-25T07:20:14;19.80;;;4.27;;
19998;SDS011;10160;50.926;4.374;2023-04-25T07:22:41;15.27;;;3.47;;
19998;SDS011;10160;50.926;4.374;2023-04-25T07:25:06;14.83;;;4.07;;
19998;SDS011;10160;50.926;4.374;2023-04-25T07:27:33;14.43;;;4.60;;
19998;SDS011;10160;50.926;4.374;2023-04-25T07:29:59;15.50;;;3.80;;
19998;SDS011;10160;50.926;4.374;2023-04-25T07:32:25;13.83;;;4.93;;
19998;SDS011;10160;50.926;4.374;2023-04-25T07:34:51;15.17;;;4.13;;
19998;SDS011;10160;50.926;4.374;2023-04-25T07:37:17;14.77;;;4.80;;
19998;SDS011;10160;50.926;4.374;2023-04-25T07:39:43;15.47;;;4.57;;
19998;SDS011;10160;50.926;4.374;2023-04-25T07:42:11;21.40;;;5.40;;
19998;SDS011;10160;50.926;4.374;2023-04-25T07:44:36;14.03;;;4.03;;
19998;SDS011;10160;50.926;4.374;2023-04-25T07:47:05;18.80;;;4.30;;
19998;SDS011;10160;50.926;4.374;2023-04-25T07:49:35;18.40;;;4.60;;
19998;SDS011;10160;50.926;4.374;2023-04-25T07:52:02;15.70;;;4.80;;
19998;SDS011;10160;50.926;4.374;2023-04-25T07:54:28;11.60;;;3.20;;
19998;SDS011;10160;50.926;4.374;2023-04-25T07:56:54;15.17;;;3.83;;
19998;SDS011;10160;50.926;4.374;2023-04-25T07:59:20;12.33;;;3.40;;
19998;SDS011;10160;50.926;4.374;2023-04-25T08:01:46;16.93;;;3.53;;
19998;SDS011;10160;50.926;4.374;2023-04-25T08:04:12;10.73;;;3.63;;
19998;SDS011;10160;50.926;4.374;2023-04-25T08:06:38;12.57;;;3.50;;
19998;SDS011;10160;50.926;4.374;2023-04-25T08:09:04;14.97;;;4.03;;
19998;SDS011;10160;50.926;4.374;2023-04-25T08:11:29;15.83;;;3.57;;
19998;SDS011;10160;50.926;4.374;2023-04-25T08:13:55;16.50;;;3.57;;
19998;SDS011;10160;50.926;4.374;2023-04-25T08:16:21;12.27;;;3.50;;
19998;SDS011;10160;50.926;4.374;2023-04-25T08:18:47;15.17;;;3.50;;
19998;SDS011;10160;50.926;4.374;2023-04-25T08:21:21;14.60;;;4.20;;
19998;SDS011;10160;50.926;4.374;2023-04-25T08:23:50;10.63;;;3.33;;
19998;SDS011;10160;50.926;4.374;2023-04-25T08:26:23;11.53;;;3.30;;
19998;SDS011;10160;50.926;4.374;2023-04-25T08:28:51;12.73;;;3.43;;
19998;SDS011;10160;50.926;4.374;2023-04-25T08:34:25;15.27;;;3.87;;
19998;SDS011;10160;50.926;4.374;2023-04-25T08:36:56;12.70;;;2.90;;
19998;SDS011;10160;50.926;4.374;2023-04-25T08:39:47;10.30;;;3.73;;
19998;SDS011;10160;50.926;4.374;2023-04-25T08:42:13;14.70;;;3.20;;
19998;SDS011;10160;50.926;4.374;2023-04-25T08:44:40;20.07;;;3.37;;
19998;SDS011;10160;50.926;4.374;2023-04-25T08:47:17;13.60;;;3.43;;
19998;SDS011;10160;50.926;4.374;2023-04-25T08:49:49;9.33;;;3.10;;
19998;SDS011;10160;50.926;4.374;2023-04-25T08:52:43;10.30;;;3.17;;
19998;SDS011;10160;50.926;4.374;2023-04-25T08:55:15;14.50;;;3.50;;
19998;SDS011;10160;50.926;4.374;2023-04-25T08:57:42;10.70;;;2.50;;
19998;SDS011;10160;50.926;4.374;2023-04-25T09:00:17;9.70;;;2.33;;
19998;SDS011;10160;50.926;4.374;2023-04-25T09:02:44;13.00;;;2.97;;
19998;SDS011;10160;50.926;4.374;2023-04-25T09:05:12;8.43;;;2.40;;
19998;SDS011;10160;50.926;4.374;2023-04-25T09:07:39;14.83;;;3.10;;
19998;SDS011;10160;50.926;4.374;2023-04-25T09:10:05;12.07;;;2.57;;
19998;SDS011;10160;50.926;4.374;2023-04-25T09:12:31;10.43;;;2.33;;
19998;SDS011;10160;50.926;4.374;2023-04-25T09:15:08;11.00;;;2.17;;
19998;SDS011;10160;50.926;4.374;2023-04-25T09:17:41;9.47;;;2.63;;
19998;SDS011;10160;50.926;4.374;2023-04-25T09:20:11;11.57;;;2.77;;
19998;SDS011;10160;50.926;4.374;2023-04-25T09:22:38;9.60;;;2.53;;
19998;SDS011;10160;50.926;4.374;2023-04-25T09:25:08;12.13;;;3.10;;
19998;SDS011;10160;50.926;4.374;2023-04-25T09:27:35;12.20;;;2.30;;
19998;SDS011;10160;50.926;4.374;2023-04-25T09:30:36;12.77;;;2.87;;
19998;SDS011;10160;50.926;4.374;2023-04-25T09:33:05;11.70;;;2.53;;
19998;SDS011;10160;50.926;4.374;2023-04-25T09:36:01;13.70;;;2.50;;
19998;SDS011;10160;50.926;4.374;2023-04-25T09:38:32;11.27;;;2.30;;
19998;SDS011;10160;50.926;4.374;2023-04-25T09:41:08;12.07;;;2.00;;
19998;SDS011;10160;50.926;4.374;2023-04-25T09:43:47;9.07;;;2.00;;
19998;SDS011;10160;50.926;4.374;2023-04-25T09:46:15;9.77;;;2.37;;
19998;SDS011;10160;50.926;4.374;2023-04-25T09:48:43;5.87;;;2.00;;
19998;SDS011;10160;50.926;4.374;2023-04-25T09:51:14;11.53;;;2.53;;
19998;SDS011;10160;50.926;4.374;2023-04-25T09:53:46;5.93;;;1.77;;
19998;SDS011;10160;50.926;4.374;2023-04-25T09:56:18;10.53;;;2.63;;
19998;SDS011;10160;50.926;4.374;2023-04-25T09:58:47;12.97;;;1.83;;
19998;SDS011;10160;50.926;4.374;2023-04-25T10:01:16;9.73;;;2.13;;
19998;SDS011;10160;50.926;4.374;2023-04-25T10:04:00;10.80;;;2.33;;
19998;SDS011;10160;50.926;4.374;2023-04-25T10:09:58;9.47;;;2.00;;
19998;SDS011;10160;50.926;4.374;2023-04-25T10:12:26;6.50;;;1.97;;
19998;SDS011;10160;50.926;4.374;2023-04-25T10:14:52;8.70;;;1.90;;
19998;SDS011;10160;50.926;4.374;2023-04-25T10:17:42;6.27;;;1.40;;
19998;SDS011;10160;50.926;4.374;2023-04-25T10:20:30;6.60;;;1.57;;
19998;SDS011;10160;50.926;4.374;2023-04-25T10:23:17;6.47;;;1.80;;
19998;SDS011;10160;50.926;4.374;2023-04-25T10:25:46;4.40;;;1.50;;
19998;SDS011;10160;50.926;4.374;2023-04-25T10:28:55;7.83;;;1.70;;
19998;SDS011;10160;50.926;4.374;2023-04-25T10:31:46;9.47;;;2.23;;
19998;SDS011;10160;50.926;4.374;2023-04-25T10:40:26;11.83;;;1.90;;
19998;SDS011;10160;50.926;4.374;2023-04-25T10:46:02;10.57;;;2.03;;
19998;SDS011;10160;50.926;4.374;2023-04-25T10:49:00;12.97;;;2.20;;
19998;SDS011;10160;50.926;4.374;2023-04-25T10:57:44;9.10;;;2.37;;
19998;SDS011;10160;50.926;4.374;2023-04-25T11:05:49;11.30;;;2.10;;
19998;SDS011;10160;50.926;4.374;2023-04-25T11:08:46;7.83;;;1.53;;
19998;SDS011;10160;50.926;4.374;2023-04-25T11:11:14;10.00;;;1.80;;
19998;SDS011;10160;50.926;4.374;2023-04-25T11:14:02;8.00;;;1.87;;
19998;SDS011;10160;50.926;4.374;2023-04-25T11:16:46;9.87;;;2.03;;
19998;SDS011;10160;50.926;4.374;2023-04-25T11:19:12;6.57;;;1.80;;
19998;SDS011;10160;50.926;4.374;2023-04-25T11:24:27;8.27;;;1.60;;
19998;SDS011;10160;50.926;4.374;2023-04-25T11:29:57;9.10;;;2.33;;
19998;SDS011;10160;50.926;4.374;2023-04-25T11:32:59;8.97;;;2.27;;
19998;SDS011;10160;50.926;4.374;2023-04-25T11:35:25;9.60;;;1.90;;
19998;SDS011;10160;50.926;4.374;2023-04-25T11:38:10;13.23;;;2.30;;
19998;SDS011;10160;50.926;4.374;2023-04-25T11:46:43;10.17;;;1.97;;
19998;SDS011;10160;50.926;4.374;2023-04-25T11:49:30;11.47;;;1.87;;
19998;SDS011;10160;50.926;4.374;2023-04-25T11:52:15;11.40;;;2.13;;
19998;SDS011;10160;50.926;4.374;2023-04-25T11:54:40;6.97;;;1.90;;
19998;SDS011;10160;50.926;4.374;2023-04-25T11:57:28;8.93;;;1.83;;
19998;SDS011;10160;50.926;4.374;2023-04-25T12:00:34;8.73;;;2.37;;
19998;SDS011;10160;50.926;4.374;2023-04-25T12:03:24;7.47;;;1.37;;
19998;SDS011;10160;50.926;4.374;2023-04-25T12:06:09;6.17;;;1.30;;
19998;SDS011;10160;50.926;4.374;2023-04-25T12:12:26;5.63;;;1.30;;
19998;SDS011;10160;50.926;4.374;2023-04-25T12:15:09;6.57;;;1.57;;
19998;SDS011;10160;50.926;4.374;2023-04-25T12:17:54;5.47;;;1.33;;
19998;SDS011;10160;50.926;4.374;2023-04-25T12:20:21;4.97;;;1.33;;
19998;SDS011;10160;50.926;4.374;2023-04-25T12:25:55;3.47;;;1.40;;
19998;SDS011;10160;50.926;4.374;2023-04-25T12:31:53;4.57;;;1.20;;
19998;SDS011;10160;50.926;4.374;2023-04-25T12:34:38;4.93;;;1.40;;
19998;SDS011;10160;50.926;4.374;2023-04-25T12:40:09;6.17;;;1.40;;
19998;SDS011;10160;50.926;4.374;2023-04-25T12:42:37;10.30;;;1.90;;
19998;SDS011;10160;50.926;4.374;2023-04-25T12:45:59;8.50;;;1.43;;
19998;SDS011;10160;50.926;4.374;2023-04-25T12:48:52;9.20;;;1.60;;
19998;SDS011;10160;50.926;4.374;2023-04-25T12:57:42;7.60;;;1.83;;
19998;SDS011;10160;50.926;4.374;2023-04-25T13:00:08;8.40;;;1.63;;
19998;SDS011;10160;50.926;4.374;2023-04-25T13:02:35;11.60;;;2.13;;
19998;SDS011;10160;50.926;4.374;2023-04-25T13:05:03;6.73;;;1.90;;
19998;SDS011;10160;50.926;4.374;2023-04-25T13:08:07;6.10;;;1.87;;
19998;SDS011;10160;50.926;4.374;2023-04-25T13:16:23;7.83;;;1.80;;
19998;SDS011;10160;50.926;4.374;2023-04-25T13:24:46;5.80;;;1.27;;
19998;SDS011;10160;50.926;4.374;2023-04-25T13:27:12;4.65;;;1.63;;
19998;SDS011;10160;50.926;4.374;2023-04-25T13:30:15;5.07;;;1.33;;
19998;SDS011;10160;50.926;4.374;2023-04-25T13:35:56;15.57;;;1.45;;
19998;SDS011;10160;50.926;4.374;2023-04-25T13:38:23;11.97;;;1.70;;
19998;SDS011;10160;50.926;4.374;2023-04-25T13:43:52;6.70;;;1.33;;
19998;SDS011;10160;50.926;4.374;2023-04-25T13:46:36;9.83;;;1.70;;
19998;SDS011;10160;50.926;4.374;2023-04-25T13:49:05;5.50;;;1.50;;
19998;SDS011;10160;50.926;4.374;2023-04-25T13:51:31;6.80;;;1.70;;
19998;SDS011;10160;50.926;4.374;2023-04-25T13:57:11;6.03;;;1.60;;
19998;SDS011;10160;50.926;4.374;2023-04-25T13:59:55;11.73;;;1.70;;
19998;SDS011;10160;50.926;4.374;2023-04-25T14:02:21;4.47;;;1.20;;
19998;SDS011;10160;50.926;4.374;2023-04-25T14:11:15;8.67;;;1.70;;
19998;SDS011;10160;50.926;4.374;2023-04-25T14:20:11;7.27;;;1.20;;
19998;SDS011;10160;50.926;4.374;2023-04-25T14:22:37;5.90;;;1.23;;
19998;SDS011;10160;50.926;4.374;2023-04-25T14:25:06;5.45;;;1.30;;
19998;SDS011;10160;50.926;4.374;2023-04-25T14:27:50;10.17;;;1.50;;
19998;SDS011;10160;50.926;4.374;2023-04-25T14:30:17;7.80;;;1.50;;
19998;SDS011;10160;50.926;4.374;2023-04-25T14:32:45;8.77;;;1.37;;
19998;SDS011;10160;50.926;4.374;2023-04-25T14:35:11;9.00;;;1.50;;
19998;SDS011;10160;50.926;4.374;2023-04-25T14:40:22;11.70;;;2.40;;
19998;SDS011;10160;50.926;4.374;2023-04-25T14:42:51;9.03;;;1.20;;
19998;SDS011;10160;50.926;4.374;2023-04-25T14:45:35;5.93;;;1.73;;
19998;SDS011;10160;50.926;4.374;2023-04-25T14:48:23;6.10;;;1.40;;
19998;SDS011;10160;50.926;4.374;2023-04-25T14:51:04;5.55;;;1.13;;
19998;SDS011;10160;50.926;4.374;2023-04-25T14:54:07;5.20;;;1.60;;
19998;SDS011;10160;50.926;4.374;2023-04-25T14:56:33;5.53;;;1.60;;
19998;SDS011;10160;50.926;4.374;2023-04-25T14:59:05;7.83;;;1.80;;
19998;SDS011;10160;50.926;4.374;2023-04-25T15:01:50;5.13;;;1.50;;
19998;SDS011;10160;50.926;4.374;2023-04-25T15:04:34;6.50;;;1.57;;
19998;SDS011;10160;50.926;4.374;2023-04-25T15:07:00;5.57;;;1.30;;
19998;SDS011;10160;50.926;4.374;2023-04-25T15:09:26;7.97;;;1.60;;
19998;SDS011;10160;50.926;4.374;2023-04-25T15:12:28;7.33;;;1.73;;
19998;SDS011;10160;50.926;4.374;2023-04-25T15:14:55;7.97;;;1.60;;
19998;SDS011;10160;50.926;4.374;2023-04-25T15:17:40;5.00;;;1.13;;
19998;SDS011;10160;50.926;4.374;2023-04-25T15:22:52;9.07;;;1.67;;
19998;SDS011;10160;50.926;4.374;2023-04-25T15:25:55;9.77;;;1.83;;
19998;SDS011;10160;50.926;4.374;2023-04-25T15:31:27;5.10;;;1.30;;
19998;SDS011;10160;50.926;4.374;2023-04-25T15:34:30;9.43;;;1.60;;
19998;SDS011;10160;50.926;4.374;2023-04-25T15:37:14;5.77;;;1.43;;
19998;SDS011;10160;50.926;4.374;2023-04-25T15:39:40;5.43;;;1.37;;
19998;SDS011;10160;50.926;4.374;2023-04-25T15:45:27;7.67;;;1.40;;
19998;SDS011;10160;50.926;4.374;2023-04-25T15:50:37;8.17;;;1.30;;
19998;SDS011;10160;50.926;4.374;2023-04-25T15:53:03;6.67;;;1.33;;
19998;SDS011;10160;50.926;4.374;2023-04-25T15:55:29;6.60;;;1.20;;
19998;SDS011;10160;50.926;4.374;2023-04-25T16:03:42;5.07;;;1.10;;
19998;SDS011;10160;50.926;4.374;2023-04-25T16:09:11;7.00;;;1.70;;
19998;SDS011;10160;50.926;4.374;2023-04-25T16:11:55;5.63;;;1.40;;
19998;SDS011;10160;50.926;4.374;2023-04-25T16:17:24;5.77;;;1.40;;
19998;SDS011;10160;50.926;4.374;2023-04-25T16:19:53;5.07;;;1.40;;
19998;SDS011;10160;50.926;4.374;2023-04-25T16:28:08;5.83;;;1.70;;
19998;SDS011;10160;50.926;4.374;2023-04-25T16:33:56;5.23;;;1.47;;
19998;SDS011;10160;50.926;4.374;2023-04-25T16:36:40;10.77;;;1.80;;
19998;SDS011;10160;50.926;4.374;2023-04-25T16:39:24;8.10;;;1.77;;
19998;SDS011;10160;50.926;4.374;2023-04-25T16:41:50;7.30;;;1.30;;
19998;SDS011;10160;50.926;4.374;2023-04-25T16:44:16;8.77;;;1.90;;
19998;SDS011;10160;50.926;4.374;2023-04-25T16:46:41;6.30;;;1.57;;
19998;SDS011;10160;50.926;4.374;2023-04-25T16:52:50;7.07;;;1.60;;
19998;SDS011;10160;50.926;4.374;2023-04-25T16:55:15;10.13;;;2.00;;
19998;SDS011;10160;50.926;4.374;2023-04-25T16:58:00;6.77;;;1.70;;
19998;SDS011;10160;50.926;4.374;2023-04-25T17:01:03;6.97;;;1.63;;
19998;SDS011;10160;50.926;4.374;2023-04-25T17:03:47;5.30;;;1.63;;
19998;SDS011;10160;50.926;4.374;2023-04-25T17:06:32;6.90;;;1.60;;
19998;SDS011;10160;50.926;4.374;2023-04-25T17:08:57;6.50;;;1.50;;